createdAt,value
2023-03-04T00:00:40.345Z,4.2
2023-03-04T00:01:58.259Z,4.2
2023-03-04T00:03:02.462Z,4.2
2023-03-04T00:04:06.712Z,4.2
2023-03-04T00:05:10.276Z,4.2
2023-03-04T00:06:14.014Z,4.2
2023-03-04T00:07:17.236Z,4.2
2023-03-04T00:08:20.446Z,4.2
2023-03-04T00:09:23.269Z,4.2
2023-03-04T00:10:25.746Z,4.2
2023-03-04T00:11:29.448Z,4.2
2023-03-04T00:12:32.529Z,4.2
2023-03-04T00:13:35.375Z,4.2
2023-03-04T00:14:38.439Z,4.2
2023-03-04T00:15:42.371Z,4.2
2023-03-04T00:16:46.172Z,4.2
2023-03-04T00:17:50.046Z,4.2
2023-03-04T00:18:53.470Z,4.2
2023-03-04T00:19:57.699Z,4.2
2023-03-04T00:21:00.819Z,4.3
2023-03-04T00:22:03.519Z,4.3
2023-03-04T00:23:07.404Z,4.2
2023-03-04T00:24:11.379Z,4.2
2023-03-04T00:25:16.420Z,4.3
2023-03-04T00:26:19.802Z,4.2
2023-03-04T00:27:23.296Z,4.2
2023-03-04T00:28:26.420Z,4.2
2023-03-04T00:29:30.215Z,4.2
2023-03-04T00:30:32.652Z,4.3
2023-03-04T00:31:36.031Z,4.3
2023-03-04T00:32:39.973Z,4.3
2023-03-04T00:33:58.365Z,4.3
2023-03-04T00:35:03.269Z,4.3
2023-03-04T00:36:21.885Z,4.3
2023-03-04T00:37:24.980Z,4.3
2023-03-04T00:38:27.712Z,4.3
2023-03-04T00:39:31.200Z,4.3
2023-03-04T00:40:34.148Z,4.3
2023-03-04T00:41:38.026Z,4.3
2023-03-04T00:42:41.190Z,4.3
2023-03-04T00:43:45.346Z,4.3
2023-03-04T00:44:48.549Z,4.4
2023-03-04T00:45:51.467Z,4.4
2023-03-04T00:46:54.972Z,4.4
2023-03-04T00:47:58.255Z,4.4
2023-03-04T00:49:01.338Z,4.4
2023-03-04T00:50:05.814Z,4.4
2023-03-04T00:51:09.104Z,4.4
2023-03-04T00:52:13.026Z,4.4
2023-03-04T00:53:16.096Z,4.4
2023-03-04T00:54:18.891Z,4.4
2023-03-04T00:55:22.250Z,4.4
2023-03-04T00:56:25.407Z,4.4
2023-03-04T00:57:28.394Z,4.4
2023-03-04T00:58:31.118Z,4.4
2023-03-04T00:59:33.861Z,4.4
2023-03-04T01:00:36.307Z,4.4
2023-03-04T01:01:40.164Z,4.4
2023-03-04T01:02:43.866Z,4.4
2023-03-04T01:03:46.791Z,4.4
2023-03-04T01:04:50.842Z,4.4
2023-03-04T01:05:54.995Z,4.4
2023-03-04T01:06:58.346Z,4.4
2023-03-04T01:08:00.497Z,4.4
2023-03-04T01:09:03.683Z,4.4
2023-03-04T01:10:06.492Z,4.4
2023-03-04T01:11:09.491Z,4.4
2023-03-04T01:12:12.516Z,4.4
2023-03-04T01:13:15.611Z,4.4
2023-03-04T01:14:18.637Z,4.4
2023-03-04T01:15:21.999Z,4.4
2023-03-04T01:16:24.937Z,4.4
2023-03-04T01:17:27.960Z,4.4
2023-03-04T01:18:30.864Z,4.4
2023-03-04T01:19:34.506Z,4.4
2023-03-04T01:20:37.707Z,4.4
2023-03-04T01:21:41.813Z,4.4
2023-03-04T01:22:44.268Z,4.4
2023-03-04T01:23:46.871Z,4.4
2023-03-04T01:24:50.342Z,4.4
2023-03-04T01:25:53.590Z,4.4
2023-03-04T01:26:57.060Z,4.4
2023-03-04T01:28:00.057Z,4.4
2023-03-04T01:29:02.496Z,4.4
2023-03-04T01:30:04.982Z,4.4
2023-03-04T01:31:08.700Z,4.4
2023-03-04T01:32:11.615Z,4.4
2023-03-04T01:33:14.765Z,4.4
2023-03-04T01:34:18.094Z,4.5
2023-03-04T01:35:22.037Z,4.5
2023-03-04T01:36:25.160Z,4.5
2023-03-04T01:37:29.356Z,4.5
2023-03-04T01:38:33.093Z,4.5
2023-03-04T01:39:36.846Z,4.5
2023-03-04T01:40:40.578Z,4.5
2023-03-04T01:41:44.290Z,4.5
2023-03-04T01:42:47.157Z,4.5
2023-03-04T01:43:50.251Z,4.5
2023-03-04T01:44:53.196Z,4.5
2023-03-04T01:45:56.653Z,4.5
2023-03-04T01:47:00.428Z,4.5
2023-03-04T01:48:03.358Z,4.5
2023-03-04T01:49:07.302Z,4.5
2023-03-04T01:50:11.141Z,4.5
2023-03-04T01:51:14.782Z,4.5
2023-03-04T01:52:17.615Z,4.5
2023-03-04T01:53:21.782Z,4.5
2023-03-04T01:54:24.855Z,4.5
2023-03-04T01:55:27.957Z,4.6
2023-03-04T01:56:30.689Z,4.6
2023-03-04T01:57:33.887Z,4.6
2023-03-04T01:58:36.885Z,4.6
2023-03-04T01:59:40.258Z,4.6
2023-03-04T02:00:43.684Z,4.6
2023-03-04T02:01:47.289Z,4.6
2023-03-04T02:02:50.379Z,4.6
2023-03-04T02:03:53.279Z,4.7
2023-03-04T02:04:56.088Z,4.7
2023-03-04T02:05:59.528Z,4.7
2023-03-04T02:07:02.505Z,4.7
2023-03-04T02:08:06.333Z,4.7
2023-03-04T02:09:10.487Z,4.7
2023-03-04T02:10:15.212Z,4.7
2023-03-04T02:11:18.016Z,4.7
2023-03-04T02:12:21.447Z,4.7
2023-03-04T02:13:24.566Z,4.7
2023-03-04T02:14:28.344Z,4.8
2023-03-04T02:15:31.885Z,4.8
2023-03-04T02:16:35.088Z,4.8
2023-03-04T02:17:38.499Z,4.8
2023-03-04T02:18:41.232Z,4.8
2023-03-04T02:19:44.992Z,4.8
2023-03-04T02:20:48.094Z,4.8
2023-03-04T02:21:51.483Z,4.8
2023-03-04T02:22:54.690Z,4.8
2023-03-04T02:23:57.783Z,4.8
2023-03-04T02:25:01.975Z,4.8
2023-03-04T02:26:05.364Z,4.8
2023-03-04T02:27:08.629Z,4.8
2023-03-04T02:28:11.451Z,4.8
2023-03-04T02:29:14.262Z,4.8
2023-03-04T02:30:16.999Z,4.8
2023-03-04T02:31:19.884Z,4.8
2023-03-04T02:32:23.710Z,4.8
2023-03-04T02:33:26.884Z,4.8
2023-03-04T02:34:30.252Z,4.8
2023-03-04T02:35:33.357Z,4.8
2023-03-04T02:36:37.136Z,4.8
2023-03-04T02:37:40.514Z,4.9
2023-03-04T02:38:43.371Z,4.8
2023-03-04T02:39:46.148Z,4.8
2023-03-04T02:40:50.339Z,4.8
2023-03-04T02:41:53.446Z,4.9
2023-03-04T02:42:57.548Z,4.9
2023-03-04T02:44:00.955Z,4.9
2023-03-04T02:45:04.714Z,4.9
2023-03-04T02:46:08.132Z,4.9
2023-03-04T02:47:11.045Z,4.9
2023-03-04T02:48:14.440Z,4.9
2023-03-04T02:49:18.083Z,4.9
2023-03-04T02:50:20.874Z,4.9
2023-03-04T02:51:23.962Z,4.9
2023-03-04T02:52:27.327Z,4.9
2023-03-04T02:53:30.738Z,4.9
2023-03-04T02:54:34.031Z,4.9
2023-03-04T02:55:37.404Z,4.9
2023-03-04T02:56:41.556Z,4.9
2023-03-04T02:57:44.982Z,4.9
2023-03-04T02:58:48.005Z,4.9
2023-03-04T02:59:51.114Z,4.9
2023-03-04T03:00:54.531Z,4.9
2023-03-04T03:01:57.756Z,4.9
2023-03-04T03:03:01.868Z,4.9
2023-03-04T03:04:05.045Z,5
2023-03-04T03:05:08.494Z,5
2023-03-04T03:06:11.386Z,5
2023-03-04T03:07:14.747Z,5
2023-03-04T03:08:17.540Z,5
2023-03-04T03:09:20.838Z,5.1
2023-03-04T03:10:23.651Z,5.1
2023-03-04T03:11:28.696Z,5.1
2023-03-04T03:12:32.845Z,5.1
2023-03-04T03:13:35.606Z,5.1
2023-03-04T03:14:38.716Z,5.2
2023-03-04T03:15:41.495Z,5.1
2023-03-04T03:16:44.799Z,5.1
2023-03-04T03:17:47.256Z,5.1
2023-03-04T03:18:50.757Z,5.1
2023-03-04T03:19:54.233Z,5.1
2023-03-04T03:20:56.812Z,5.1
2023-03-04T03:21:59.792Z,5.1
2023-03-04T03:23:02.537Z,5.1
2023-03-04T03:24:06.286Z,5.1
2023-03-04T03:25:09.318Z,5.1
2023-03-04T03:26:12.645Z,5.1
2023-03-04T03:27:16.292Z,5.1
2023-03-04T03:28:20.412Z,5.1
2023-03-04T03:29:23.477Z,5.1
2023-03-04T03:30:26.832Z,5.1
2023-03-04T03:31:30.284Z,5.1
2023-03-04T03:32:34.230Z,5.1
2023-03-04T03:33:37.759Z,5.1
2023-03-04T03:34:41.154Z,5
2023-03-04T03:35:44.560Z,5.1
2023-03-04T03:36:47.763Z,5
2023-03-04T03:37:51.120Z,5
2023-03-04T03:38:54.104Z,5
2023-03-04T03:39:56.948Z,5
2023-03-04T03:41:00.045Z,5
2023-03-04T03:42:02.912Z,5
2023-03-04T03:43:06.388Z,5
2023-03-04T03:44:10.569Z,5
2023-03-04T03:45:13.335Z,5
2023-03-04T03:46:16.491Z,5
2023-03-04T03:47:20.130Z,5.1
2023-03-04T03:48:23.034Z,5.1
2023-03-04T03:49:26.032Z,5.1
2023-03-04T03:50:29.316Z,5
2023-03-04T03:51:31.749Z,5
2023-03-04T03:52:34.450Z,5
2023-03-04T03:53:37.905Z,5
2023-03-04T03:54:41.221Z,5
2023-03-04T03:55:44.206Z,5
2023-03-04T03:56:48.225Z,5
2023-03-04T03:57:50.812Z,5
2023-03-04T03:58:54.099Z,5
2023-03-04T03:59:58.276Z,5
2023-03-04T04:01:01.707Z,5
2023-03-04T04:02:05.822Z,5
2023-03-04T04:03:10.013Z,5
2023-03-04T04:04:12.849Z,5
2023-03-04T04:05:15.895Z,5
2023-03-04T04:06:19.279Z,5
2023-03-04T04:07:22.106Z,5
2023-03-04T04:08:24.881Z,5
2023-03-04T04:09:28.607Z,4.9
2023-03-04T04:10:31.437Z,4.9
2023-03-04T04:11:34.448Z,4.9
2023-03-04T04:12:37.453Z,4.9
2023-03-04T04:13:40.784Z,4.9
2023-03-04T04:14:43.283Z,4.9
2023-03-04T04:15:47.470Z,4.9
2023-03-04T04:16:51.079Z,4.9
2023-03-04T04:17:54.344Z,4.8
2023-03-04T04:18:57.717Z,4.9
2023-03-04T04:20:01.172Z,4.9
2023-03-04T04:21:04.055Z,4.9
2023-03-04T04:22:06.850Z,4.9
2023-03-04T04:23:09.882Z,4.9
2023-03-04T04:24:13.231Z,4.9
2023-03-04T04:25:16.310Z,4.9
2023-03-04T04:26:19.699Z,5
2023-03-04T04:27:22.501Z,5
2023-03-04T04:28:25.506Z,5.1
2023-03-04T04:29:28.361Z,5.1
2023-03-04T04:30:31.706Z,5.2
2023-03-04T04:31:35.947Z,5.2
2023-03-04T04:32:39.392Z,5.2
2023-03-04T04:33:42.463Z,5.1
2023-03-04T04:34:45.834Z,5.2
2023-03-04T04:35:49.190Z,5.2
2023-03-04T04:36:52.365Z,5.2
2023-03-04T04:37:55.172Z,5.2
2023-03-04T04:38:58.655Z,5.2
2023-03-04T04:40:01.727Z,5.2
2023-03-04T04:41:05.394Z,5.2
2023-03-04T04:42:07.574Z,5.2
2023-03-04T04:43:10.280Z,5.1
2023-03-04T04:44:13.355Z,5.1
2023-03-04T04:45:16.505Z,5.1
2023-03-04T04:46:20.378Z,5.1
2023-03-04T04:47:24.606Z,5.1
2023-03-04T04:48:27.764Z,5.1
2023-03-04T04:49:30.551Z,5.1
2023-03-04T04:50:35.092Z,5.1
2023-03-04T04:51:38.219Z,5.1
2023-03-04T04:52:41.314Z,5
2023-03-04T04:53:44.656Z,5
2023-03-04T04:54:47.454Z,5.1
2023-03-04T04:55:50.195Z,5.1
2023-03-04T04:56:53.646Z,5
2023-03-04T04:57:56.715Z,5
2023-03-04T04:59:00.095Z,5
2023-03-04T05:00:03.852Z,5
2023-03-04T05:01:06.774Z,4.9
2023-03-04T05:02:09.812Z,5
2023-03-04T05:03:14.183Z,5
2023-03-04T05:04:17.587Z,5
2023-03-04T05:05:20.514Z,5.1
2023-03-04T05:06:23.508Z,5.1
2023-03-04T05:07:26.692Z,5.1
2023-03-04T05:08:30.050Z,5.1
2023-03-04T05:09:32.835Z,5
2023-03-04T05:10:35.936Z,5
2023-03-04T05:11:38.368Z,5
2023-03-04T05:12:41.485Z,5
2023-03-04T05:13:44.927Z,5
2023-03-04T05:14:47.715Z,5.1
2023-03-04T05:15:50.609Z,5.1
2023-03-04T05:16:53.710Z,5.1
2023-03-04T05:17:56.560Z,5.1
2023-03-04T05:19:00.758Z,5.1
2023-03-04T05:20:04.067Z,5.1
2023-03-04T05:21:06.938Z,5.1
2023-03-04T05:22:09.744Z,5.1
2023-03-04T05:23:12.595Z,5.1
2023-03-04T05:24:15.487Z,5.1
2023-03-04T05:25:18.565Z,5.1
2023-03-04T05:26:21.781Z,5.1
2023-03-04T05:27:25.129Z,5.1
2023-03-04T05:28:28.198Z,5.1
2023-03-04T05:29:30.396Z,5.1
2023-03-04T05:30:33.473Z,5.1
2023-03-04T05:31:36.912Z,5.1
2023-03-04T05:32:40.054Z,5.1
2023-03-04T05:33:43.030Z,5.1
2023-03-04T05:34:47.194Z,5.1
2023-03-04T05:35:50.127Z,5.1
2023-03-04T05:36:52.912Z,5
2023-03-04T05:37:55.989Z,5
2023-03-04T05:38:59.069Z,5
2023-03-04T05:40:02.169Z,5
2023-03-04T05:41:05.324Z,5
2023-03-04T05:42:08.401Z,5
2023-03-04T05:43:10.902Z,5
2023-03-04T05:44:14.193Z,5.1
2023-03-04T05:45:17.868Z,5.1
2023-03-04T05:46:21.926Z,5
2023-03-04T05:47:25.356Z,5
2023-03-04T05:48:28.359Z,5.1
2023-03-04T05:49:31.862Z,5.1
2023-03-04T05:50:36.128Z,5.1
2023-03-04T05:51:38.849Z,5.1
2023-03-04T05:52:41.635Z,5.1
2023-03-04T05:53:44.713Z,5.1
2023-03-04T05:54:47.266Z,5.1
2023-03-04T05:55:50.056Z,5.1
2023-03-04T05:56:53.435Z,5.1
2023-03-04T05:57:56.142Z,5.1
2023-03-04T05:58:59.470Z,5.1
2023-03-04T06:00:02.624Z,5.1
2023-03-04T06:01:04.921Z,5.1
2023-03-04T06:02:08.256Z,5.1
2023-03-04T06:03:11.983Z,5.2
2023-03-04T06:04:15.377Z,5.2
2023-03-04T06:05:18.851Z,5.1
2023-03-04T06:06:23.037Z,5.1
2023-03-04T06:07:26.023Z,5.1
2023-03-04T06:08:29.191Z,5.1
2023-03-04T06:09:32.604Z,5
2023-03-04T06:10:36.047Z,5.1
2023-03-04T06:11:38.561Z,5.1
2023-03-04T06:12:41.659Z,5.1
2023-03-04T06:13:44.180Z,5.1
2023-03-04T06:14:47.576Z,5.1
2023-03-04T06:15:51.510Z,5.1
2023-03-04T06:16:54.564Z,5.1
2023-03-04T06:17:57.934Z,5.2
2023-03-04T06:19:00.882Z,5.2
2023-03-04T06:20:04.218Z,5.2
2023-03-04T06:21:07.507Z,5.2
2023-03-04T06:22:11.644Z,5.2
2023-03-04T06:23:14.807Z,5.2
2023-03-04T06:24:17.777Z,5.2
2023-03-04T06:25:20.853Z,5.3
2023-03-04T06:26:23.681Z,5.2
2023-03-04T06:27:26.474Z,5.2
2023-03-04T06:28:29.522Z,5.2
2023-03-04T06:29:32.517Z,5.2
2023-03-04T06:30:35.949Z,5.2
2023-03-04T06:31:39.744Z,5.3
2023-03-04T06:32:42.497Z,5.3
2023-03-04T06:33:45.857Z,5.3
2023-03-04T06:34:48.665Z,5.3
2023-03-04T06:35:51.775Z,5.3
2023-03-04T06:36:54.642Z,5.3
2023-03-04T06:37:58.786Z,5.3
2023-03-04T06:39:01.862Z,5.2
2023-03-04T06:40:04.316Z,5.2
2023-03-04T06:41:06.898Z,5.2
2023-03-04T06:42:09.348Z,5.1
2023-03-04T06:43:12.236Z,5.1
2023-03-04T06:44:14.987Z,5.2
2023-03-04T06:45:17.851Z,5.2
2023-03-04T06:46:21.461Z,5.2
2023-03-04T06:47:25.237Z,5.2
2023-03-04T06:48:28.399Z,5.1
2023-03-04T06:49:32.116Z,5.2
2023-03-04T06:50:35.606Z,5.2
2023-03-04T06:51:39.386Z,5.2
2023-03-04T06:52:42.303Z,5.2
2023-03-04T06:53:46.465Z,5.2
2023-03-04T06:54:49.785Z,5.1
2023-03-04T06:55:52.876Z,5.1
2023-03-04T06:56:55.125Z,5.2
2023-03-04T06:57:58.206Z,5.2
2023-03-04T06:59:01.585Z,5.1
2023-03-04T07:00:05.408Z,5.1
2023-03-04T07:01:09.413Z,5.1
2023-03-04T07:02:13.207Z,5.2
2023-03-04T07:03:16.131Z,5.2
2023-03-04T07:04:19.892Z,5.1
2023-03-04T07:05:22.736Z,5.1
2023-03-04T07:06:26.394Z,5.2
2023-03-04T07:07:28.564Z,5.2
2023-03-04T07:08:31.407Z,5.2
2023-03-04T07:09:35.544Z,5.3
2023-03-04T07:10:38.620Z,5.3
2023-03-04T07:11:41.758Z,5.3
2023-03-04T07:12:44.498Z,5.3
2023-03-04T07:13:47.736Z,5.3
2023-03-04T07:14:50.979Z,5.3
2023-03-04T07:15:54.769Z,5.3
2023-03-04T07:16:57.789Z,5.3
2023-03-04T07:18:00.869Z,5.2
2023-03-04T07:19:03.875Z,5.2
2023-03-04T07:20:06.668Z,5.1
2023-03-04T07:21:10.052Z,5.2
2023-03-04T07:22:12.828Z,5.2
2023-03-04T07:23:16.108Z,5.2
2023-03-04T07:24:18.585Z,5.3
2023-03-04T07:25:22.813Z,5.2
2023-03-04T07:26:25.813Z,5.2
2023-03-04T07:27:28.791Z,5.2
2023-03-04T07:28:32.238Z,5.2
2023-03-04T07:29:34.768Z,5.1
2023-03-04T07:30:38.140Z,5.2
2023-03-04T07:31:41.871Z,5.1
2023-03-04T07:32:45.958Z,5.2
2023-03-04T07:33:49.058Z,5.2
2023-03-04T07:34:51.627Z,5.1
2023-03-04T07:35:54.418Z,5.1
2023-03-04T07:36:57.479Z,5.1
2023-03-04T07:38:00.581Z,5.1
2023-03-04T07:39:03.972Z,5.2
2023-03-04T07:40:07.137Z,5.2
2023-03-04T07:41:11.318Z,5.3
2023-03-04T07:42:13.668Z,5.2
2023-03-04T07:43:16.374Z,5.2
2023-03-04T07:44:20.106Z,5.2
2023-03-04T07:45:23.847Z,5.2
2023-03-04T07:46:27.490Z,5.3
2023-03-04T07:47:30.943Z,5.2
2023-03-04T07:48:34.059Z,5.2
2023-03-04T07:49:37.393Z,5.2
2023-03-04T07:50:40.701Z,5.2
2023-03-04T07:51:44.072Z,5.2
2023-03-04T07:52:47.285Z,5.2
2023-03-04T07:53:50.642Z,5.2
2023-03-04T07:54:54.349Z,5.2
2023-03-04T07:55:57.458Z,5.2
2023-03-04T07:57:01.763Z,5.3
2023-03-04T07:58:04.792Z,5.3
2023-03-04T07:59:08.644Z,5.3
2023-03-04T08:00:12.335Z,5.3
2023-03-04T08:01:16.121Z,5.3
2023-03-04T08:02:19.619Z,5.3
2023-03-04T08:03:22.798Z,5.2
2023-03-04T08:04:25.729Z,5.2
2023-03-04T08:05:28.530Z,5.2
2023-03-04T08:06:31.696Z,5.2
2023-03-04T08:07:35.169Z,5.3
2023-03-04T08:08:37.878Z,5.3
2023-03-04T08:09:40.306Z,5.3
2023-03-04T08:10:43.062Z,5.3
2023-03-04T08:11:45.888Z,5.2
2023-03-04T08:12:50.022Z,5.2
2023-03-04T08:13:53.290Z,5.2
2023-03-04T08:14:56.420Z,5.1
2023-03-04T08:15:59.888Z,5.1
2023-03-04T08:17:03.316Z,5.1
2023-03-04T08:18:05.827Z,5.1
2023-03-04T08:19:09.220Z,5.1
2023-03-04T08:20:12.967Z,5.1
2023-03-04T08:21:16.234Z,5.1
2023-03-04T08:22:19.674Z,5.1
2023-03-04T08:23:23.556Z,5.1
2023-03-04T08:24:26.544Z,5.1
2023-03-04T08:25:29.332Z,5.1
2023-03-04T08:26:32.768Z,5.1
2023-03-04T08:27:35.766Z,5.1
2023-03-04T08:28:39.995Z,5.1
2023-03-04T08:29:42.164Z,5.1
2023-03-04T08:30:45.968Z,5.1
2023-03-04T08:31:51.257Z,5.1
2023-03-04T08:32:54.631Z,5.1
2023-03-04T08:33:58.337Z,5.1
2023-03-04T08:35:01.776Z,5
2023-03-04T08:36:04.882Z,5.1
2023-03-04T08:37:08.002Z,5.1
2023-03-04T08:38:11.351Z,5.1
2023-03-04T08:39:14.081Z,5.2
2023-03-04T08:40:17.257Z,5.2
2023-03-04T08:41:20.264Z,5.1
2023-03-04T08:42:23.339Z,5.1
2023-03-04T08:43:26.210Z,5.1
2023-03-04T08:44:30.603Z,5.1
2023-03-04T08:45:33.314Z,5.1
2023-03-04T08:46:36.830Z,5.1
2023-03-04T08:47:39.918Z,5.1
2023-03-04T08:48:43.288Z,5.2
2023-03-04T08:49:45.754Z,5.2
2023-03-04T08:50:48.761Z,5.2
2023-03-04T08:51:51.871Z,5.2
2023-03-04T08:52:55.527Z,5.2
2023-03-04T08:53:58.112Z,5.2
2023-03-04T08:55:01.654Z,5.2
2023-03-04T08:56:04.815Z,5.2
2023-03-04T08:57:07.709Z,5.2
2023-03-04T08:58:10.472Z,5.2
2023-03-04T08:59:13.830Z,5.1
2023-03-04T09:00:18.232Z,5.2
2023-03-04T09:01:20.955Z,5.2
2023-03-04T09:02:24.126Z,5.2
2023-03-04T09:03:27.784Z,5.2
2023-03-04T09:04:31.857Z,5.3
2023-03-04T09:05:35.223Z,5.3
2023-03-04T09:06:38.104Z,5.3
2023-03-04T09:07:41.475Z,5.2
2023-03-04T09:08:44.607Z,5.3
2023-03-04T09:09:47.430Z,5.3
2023-03-04T09:10:50.880Z,5.2
2023-03-04T09:11:53.694Z,5.2
2023-03-04T09:12:57.168Z,5.2
2023-03-04T09:14:00.296Z,5.3
2023-03-04T09:15:13.639Z,5.3
2023-03-04T09:16:18.116Z,5.3
2023-03-04T09:17:21.309Z,5.2
2023-03-04T09:18:24.664Z,5.2
2023-03-04T09:19:27.358Z,5.2
2023-03-04T09:20:30.176Z,5.2
2023-03-04T09:21:33.445Z,5.2
2023-03-04T09:22:37.434Z,5.2
2023-03-04T09:23:40.586Z,5.3
2023-03-04T09:24:42.995Z,5.3
2023-03-04T09:25:46.024Z,5.3
2023-03-04T09:26:49.371Z,5.3
2023-03-04T09:27:52.563Z,5.3
2023-03-04T09:28:56.049Z,5.3
2023-03-04T09:29:59.518Z,5.3
2023-03-04T09:31:03.497Z,5.3
2023-03-04T09:32:08.010Z,5.2
2023-03-04T09:33:11.238Z,5.2
2023-03-04T09:34:14.660Z,5.2
2023-03-04T09:35:17.768Z,5.2
2023-03-04T09:36:21.072Z,5.2
2023-03-04T09:37:24.438Z,5.2
2023-03-04T09:38:27.800Z,5.2
2023-03-04T09:39:30.521Z,5.2
2023-03-04T09:40:34.201Z,5.2
2023-03-04T09:41:37.197Z,5.1
2023-03-04T09:42:40.916Z,5.2
2023-03-04T09:43:45.032Z,5.2
2023-03-04T09:44:48.042Z,5.1
2023-03-04T09:45:51.472Z,5.1
2023-03-04T09:46:54.609Z,5.1
2023-03-04T09:47:59.038Z,5.1
2023-03-04T09:49:02.188Z,5.1
2023-03-04T09:50:05.692Z,5.2
2023-03-04T09:51:09.115Z,5.2
2023-03-04T09:52:12.455Z,5.2
2023-03-04T09:53:15.838Z,5.2
2023-03-04T09:54:18.619Z,5.2
2023-03-04T09:55:21.927Z,5.1
2023-03-04T09:56:25.746Z,5.1
2023-03-04T09:57:29.315Z,5
2023-03-04T09:58:32.714Z,5
2023-03-04T09:59:36.157Z,5
2023-03-04T10:00:39.352Z,5.1
2023-03-04T10:01:41.630Z,5.1
2023-03-04T10:02:44.208Z,5.1
2023-03-04T10:03:48.772Z,5.2
2023-03-04T10:04:52.098Z,5.2
2023-03-04T10:05:55.601Z,5.2
2023-03-04T10:06:58.964Z,5.2
2023-03-04T10:08:02.405Z,5.2
2023-03-04T10:09:05.214Z,5.2
2023-03-04T10:10:08.309Z,5.3
2023-03-04T10:11:11.674Z,5.3
2023-03-04T10:12:14.304Z,5.3
2023-03-04T10:13:17.751Z,5.3
2023-03-04T10:14:21.434Z,5.3
2023-03-04T10:15:24.877Z,5.3
2023-03-04T10:16:28.371Z,5.4
2023-03-04T10:17:31.096Z,5.4
2023-03-04T10:18:33.912Z,5.4
2023-03-04T10:19:38.084Z,5.4
2023-03-04T10:20:41.080Z,5.4
2023-03-04T10:21:44.492Z,5.4
2023-03-04T10:22:47.920Z,5.4
2023-03-04T10:23:51.000Z,5.5
2023-03-04T10:24:54.343Z,5.9
2023-03-04T10:25:57.490Z,6
2023-03-04T10:27:00.867Z,6.2
2023-03-04T10:28:04.341Z,6.6
2023-03-04T10:29:07.031Z,6.8
2023-03-04T10:30:09.843Z,6.9
2023-03-04T10:31:12.886Z,6.8
2023-03-04T10:32:16.314Z,6.7
2023-03-04T10:33:19.697Z,6.3
2023-03-04T10:34:23.067Z,6.1
2023-03-04T10:35:27.425Z,6
2023-03-04T10:36:31.597Z,5.9
2023-03-04T10:37:35.111Z,5.9
2023-03-04T10:38:37.901Z,5.8
2023-03-04T10:39:41.217Z,5.7
2023-03-04T10:40:47.244Z,5.6
2023-03-04T10:41:51.002Z,5.5
2023-03-04T10:42:54.859Z,5.5
2023-03-04T10:43:57.287Z,5.5
2023-03-04T10:45:00.695Z,5.4
2023-03-04T10:46:04.684Z,5.4
2023-03-04T10:47:08.134Z,5.4
2023-03-04T10:48:11.225Z,5.3
2023-03-04T10:49:15.343Z,5.3
2023-03-04T10:50:18.781Z,5.4
2023-03-04T10:51:22.937Z,5.3
2023-03-04T10:52:25.735Z,5.3
2023-03-04T10:53:29.116Z,5.3
2023-03-04T10:54:32.847Z,5.3
2023-03-04T10:55:35.839Z,5.4
2023-03-04T10:56:39.940Z,5.4
2023-03-04T10:57:42.982Z,5.4
2023-03-04T10:58:46.341Z,5.4
2023-03-04T10:59:49.756Z,5.4
2023-03-04T11:00:52.823Z,5.5
2023-03-04T11:01:55.325Z,5.5
2023-03-04T11:02:58.310Z,5.6
2023-03-04T11:04:01.946Z,5.6
2023-03-04T11:05:05.794Z,5.7
2023-03-04T11:06:08.931Z,5.7
2023-03-04T11:07:13.167Z,5.6
2023-03-04T11:08:15.880Z,5.5
2023-03-04T11:09:19.598Z,5.5
2023-03-04T11:10:22.382Z,5.5
2023-03-04T11:11:26.431Z,5.4
2023-03-04T11:12:29.527Z,5.4
2023-03-04T11:13:31.756Z,5.4
2023-03-04T11:14:34.602Z,5.4
2023-03-04T11:15:37.333Z,5.4
2023-03-04T11:16:41.399Z,5.4
2023-03-04T11:17:44.965Z,5.3
2023-03-04T11:18:48.046Z,5.3
2023-03-04T11:19:50.504Z,5.3
2023-03-04T11:20:53.582Z,5.3
2023-03-04T11:21:56.398Z,5.3
2023-03-04T11:23:00.560Z,5.3
2023-03-04T11:24:03.626Z,5.4
2023-03-04T11:25:06.512Z,5.4
2023-03-04T11:26:09.211Z,5.4
2023-03-04T11:27:12.550Z,5.4
2023-03-04T11:28:16.233Z,5.4
2023-03-04T11:29:19.230Z,5.5
2023-03-04T11:30:22.353Z,5.5
2023-03-04T11:31:25.854Z,5.4
2023-03-04T11:32:29.559Z,5.4
2023-03-04T11:33:32.446Z,5.4
2023-03-04T11:34:35.834Z,5.4
2023-03-04T11:35:39.804Z,5.5
2023-03-04T11:36:42.931Z,5.6
2023-03-04T11:37:45.951Z,5.6
2023-03-04T11:38:50.075Z,5.7
2023-03-04T11:39:53.255Z,5.8
2023-03-04T11:40:56.630Z,5.8
2023-03-04T11:41:59.918Z,5.8
2023-03-04T11:43:03.046Z,5.9
2023-03-04T11:44:06.032Z,5.9
2023-03-04T11:45:34.582Z,6
2023-03-04T11:46:38.490Z,6
2023-03-04T11:47:42.207Z,5.9
2023-03-04T11:48:45.272Z,6
2023-03-04T11:49:47.710Z,6.1
2023-03-04T11:50:50.520Z,6.1
2023-03-04T11:51:52.959Z,6.1
2023-03-04T11:52:56.267Z,6
2023-03-04T11:54:00.468Z,5.9
2023-03-04T11:55:03.916Z,5.9
2023-03-04T11:56:06.909Z,5.8
2023-03-04T11:57:10.863Z,5.9
2023-03-04T11:58:15.514Z,5.9
2023-03-04T11:59:18.298Z,6
2023-03-04T12:00:21.096Z,6
2023-03-04T12:01:25.635Z,6
2023-03-04T12:02:28.423Z,6
2023-03-04T12:03:32.175Z,5.9
2023-03-04T12:04:35.443Z,5.9
2023-03-04T12:05:39.216Z,6
2023-03-04T12:06:42.444Z,6
2023-03-04T12:07:45.468Z,5.9
2023-03-04T12:08:47.995Z,5.8
2023-03-04T12:09:52.146Z,5.8
2023-03-04T12:10:55.003Z,5.8
2023-03-04T12:11:57.237Z,5.8
2023-03-04T12:13:00.337Z,5.8
2023-03-04T12:14:03.523Z,5.7
2023-03-04T12:15:06.636Z,5.7
2023-03-04T12:16:10.228Z,5.7
2023-03-04T12:17:13.694Z,5.7
2023-03-04T12:18:18.149Z,5.7
2023-03-04T12:19:21.700Z,5.8
2023-03-04T12:20:24.850Z,5.7
2023-03-04T12:21:28.050Z,5.8
2023-03-04T12:22:31.525Z,5.8
2023-03-04T12:23:34.594Z,5.9
2023-03-04T12:24:37.225Z,5.9
2023-03-04T12:25:41.408Z,5.9
2023-03-04T12:26:44.589Z,6
2023-03-04T12:27:47.270Z,5.9
2023-03-04T12:28:50.088Z,5.9
2023-03-04T12:29:53.158Z,5.9
2023-03-04T12:30:56.146Z,5.8
2023-03-04T12:32:00.139Z,5.8
2023-03-04T12:33:03.724Z,5.9
2023-03-04T12:34:06.618Z,5.9
2023-03-04T12:35:09.686Z,5.9
2023-03-04T12:36:12.558Z,5.9
2023-03-04T12:37:17.012Z,6
2023-03-04T12:38:21.557Z,6.1
2023-03-04T12:39:24.691Z,6.1
2023-03-04T12:40:28.565Z,6.2
2023-03-04T12:41:32.777Z,6.1
2023-03-04T12:42:36.146Z,6.2
2023-03-04T12:43:39.133Z,6.2
2023-03-04T12:44:42.338Z,6.2
2023-03-04T12:45:45.472Z,6.3
2023-03-04T12:46:49.019Z,6.3
2023-03-04T12:47:52.109Z,6.4
2023-03-04T12:48:55.450Z,6.5
2023-03-04T12:49:58.949Z,6.5
2023-03-04T12:51:02.327Z,6.5
2023-03-04T12:52:05.812Z,6.5
2023-03-04T12:53:08.976Z,6.5
2023-03-04T12:54:11.991Z,6.4
2023-03-04T12:55:15.126Z,6.4
2023-03-04T12:56:18.612Z,6.5
2023-03-04T12:57:22.757Z,6.5
2023-03-04T12:58:26.225Z,6.5
2023-03-04T12:59:29.593Z,6.5
2023-03-04T13:00:32.304Z,6.5
2023-03-04T13:01:35.310Z,6.5
2023-03-04T13:02:38.738Z,6.5
2023-03-04T13:03:42.233Z,6.4
2023-03-04T13:04:45.920Z,6.4
2023-03-04T13:05:48.667Z,6.5
2023-03-04T13:06:51.362Z,6.5
2023-03-04T13:07:56.163Z,6.4
2023-03-04T13:08:59.434Z,6.5
2023-03-04T13:10:02.439Z,6.5
2023-03-04T13:11:05.839Z,6.4
2023-03-04T13:12:08.576Z,6.5
2023-03-04T13:13:12.715Z,6.5
2023-03-04T13:14:16.163Z,6.5
2023-03-04T13:15:19.035Z,6.5
2023-03-04T13:16:22.732Z,6.5
2023-03-04T13:17:25.610Z,6.5
2023-03-04T13:18:28.669Z,6.5
2023-03-04T13:19:31.746Z,6.5
2023-03-04T13:20:35.168Z,6.4
2023-03-04T13:21:38.246Z,6.4
2023-03-04T13:22:40.988Z,6.4
2023-03-04T13:23:44.109Z,6.3
2023-03-04T13:24:47.582Z,6.3
2023-03-04T13:25:50.334Z,6.3
2023-03-04T13:26:54.444Z,6.3
2023-03-04T13:27:59.035Z,6.1
2023-03-04T13:29:03.241Z,6.1
2023-03-04T13:30:05.758Z,6.2
2023-03-04T13:31:09.096Z,6.2
2023-03-04T13:32:12.887Z,6.2
2023-03-04T13:33:16.776Z,6.2
2023-03-04T13:34:19.766Z,6.1
2023-03-04T13:35:23.516Z,6.2
2023-03-04T13:36:26.253Z,6.2
2023-03-04T13:37:29.284Z,6.2
2023-03-04T13:38:32.509Z,6.4
2023-03-04T13:39:35.505Z,6.6
2023-03-04T13:40:38.948Z,6.7
2023-03-04T13:41:42.166Z,6.7
2023-03-04T13:42:45.150Z,6.8
2023-03-04T13:43:48.475Z,6.8
2023-03-04T13:44:52.700Z,6.8
2023-03-04T13:45:55.427Z,6.9
2023-03-04T13:46:59.160Z,6.8
2023-03-04T13:48:02.839Z,6.8
2023-03-04T13:49:05.635Z,6.8
2023-03-04T13:50:09.273Z,6.8
2023-03-04T13:51:31.717Z,6.8
2023-03-04T13:52:35.376Z,6.8
2023-03-04T13:53:38.733Z,6.9
2023-03-04T13:54:41.799Z,6.9
2023-03-04T13:55:44.563Z,6.9
2023-03-04T13:56:47.645Z,7
2023-03-04T13:57:50.843Z,7
2023-03-04T13:58:53.993Z,7
2023-03-04T13:59:58.116Z,7
2023-03-04T14:01:01.231Z,7
2023-03-04T14:02:04.602Z,6.9
2023-03-04T14:03:08.096Z,6.8
2023-03-04T14:04:10.860Z,6.8
2023-03-04T14:05:14.002Z,6.8
2023-03-04T14:06:17.623Z,6.9
2023-03-04T14:07:21.182Z,7
2023-03-04T14:08:24.082Z,7.1
2023-03-04T14:09:26.781Z,7
2023-03-04T14:10:29.683Z,6.8
2023-03-04T14:11:33.111Z,6.8
2023-03-04T14:12:37.119Z,6.8
2023-03-04T14:13:40.305Z,6.6
2023-03-04T14:14:43.427Z,6.6
2023-03-04T14:15:47.749Z,6.6
2023-03-04T14:16:50.626Z,6.6
2023-03-04T14:17:54.674Z,6.7
2023-03-04T14:18:57.854Z,6.7
2023-03-04T14:20:01.032Z,6.7
2023-03-04T14:21:04.044Z,6.7
2023-03-04T14:22:07.388Z,6.7
2023-03-04T14:23:10.671Z,6.7
2023-03-04T14:24:13.744Z,6.7
2023-03-04T14:25:16.762Z,6.7
2023-03-04T14:26:20.229Z,6.7
2023-03-04T14:27:23.122Z,6.7
2023-03-04T14:28:26.119Z,6.6
2023-03-04T14:29:29.313Z,6.7
2023-03-04T14:30:45.689Z,6.6
2023-03-04T14:31:50.219Z,6.6
2023-03-04T14:32:52.343Z,6.6
2023-03-04T14:33:55.689Z,6.6
2023-03-04T14:34:58.673Z,6.6
2023-03-04T14:36:02.208Z,6.4
2023-03-04T14:37:04.772Z,6.4
2023-03-04T14:38:07.648Z,6.3
2023-03-04T14:39:11.068Z,6.3